sensor_id;sensor_type;location;lat;lon;timestamp;temperature;humidity
39777;DHT22;25453;48.162;14.510;2022-11-15T00:01:23;9.20;70.50
39777;DHT22;25453;48.162;14.510;2022-11-15T00:03:57;9.20;70.60
39777;DHT22;25453;48.162;14.510;2022-11-15T00:06:24;9.20;70.60
39777;DHT22;25453;48.162;14.510;2022-11-15T00:08:59;9.20;70.70
39777;DHT22;25453;48.162;14.510;2022-11-15T00:11:26;9.20;70.70
39777;DHT22;25453;48.162;14.510;2022-11-15T00:14:00;9.30;70.90
39777;DHT22;25453;48.162;14.510;2022-11-15T00:16:29;9.30;70.80
39777;DHT22;25453;48.162;14.510;2022-11-15T00:18:56;9.30;70.90
39777;DHT22;25453;48.162;14.510;2022-11-15T00:21:30;9.30;70.80
39777;DHT22;25453;48.162;14.510;2022-11-15T00:23:58;9.30;70.30
39777;DHT22;25453;48.162;14.510;2022-11-15T00:26:32;9.30;70.00
39777;DHT22;25453;48.162;14.510;2022-11-15T00:29:06;9.20;70.10
39777;DHT22;25453;48.162;14.510;2022-11-15T00:31:40;9.10;70.00
39777;DHT22;25453;48.162;14.510;2022-11-15T00:34:08;9.00;70.00
39777;DHT22;25453;48.162;14.510;2022-11-15T00:36:42;9.00;70.10
39777;DHT22;25453;48.162;14.510;2022-11-15T00:39:23;8.90;70.10
39777;DHT22;25453;48.162;14.510;2022-11-15T00:41:56;8.90;70.10
39777;DHT22;25453;48.162;14.510;2022-11-15T00:44:36;8.80;70.10
39777;DHT22;25453;48.162;14.510;2022-11-15T00:47:10;8.80;70.30
39777;DHT22;25453;48.162;14.510;2022-11-15T00:49:44;8.70;70.60
39777;DHT22;25453;48.162;14.510;2022-11-15T00:52:18;8.70;70.60
39777;DHT22;25453;48.162;14.510;2022-11-15T00:54:45;8.70;70.70
39777;DHT22;25453;48.162;14.510;2022-11-15T00:57:19;8.70;70.70
39777;DHT22;25453;48.162;14.510;2022-11-15T00:59:46;8.80;71.20
39777;DHT22;25453;48.162;14.510;2022-11-15T01:02:20;8.90;71.20
39777;DHT22;25453;48.162;14.510;2022-11-15T01:04:47;8.90;70.80
39777;DHT22;25453;48.162;14.510;2022-11-15T01:07:21;8.90;70.50
39777;DHT22;25453;48.162;14.510;2022-11-15T01:09:55;8.90;70.70
39777;DHT22;25453;48.162;14.510;2022-11-15T01:12:29;8.90;70.80
39777;DHT22;25453;48.162;14.510;2022-11-15T01:14:56;9.00;71.00
39777;DHT22;25453;48.162;14.510;2022-11-15T01:17:31;9.00;70.40
39777;DHT22;25453;48.162;14.510;2022-11-15T01:20:05;8.90;70.30
39777;DHT22;25453;48.162;14.510;2022-11-15T01:22:39;8.90;70.10
39777;DHT22;25453;48.162;14.510;2022-11-15T01:25:13;8.80;69.90
39777;DHT22;25453;48.162;14.510;2022-11-15T01:27:47;8.80;70.00
39777;DHT22;25453;48.162;14.510;2022-11-15T01:30:15;8.80;70.00
39777;DHT22;25453;48.162;14.510;2022-11-15T01:32:48;8.80;70.20
39777;DHT22;25453;48.162;14.510;2022-11-15T01:35:15;8.70;70.00
39777;DHT22;25453;48.162;14.510;2022-11-15T01:37:49;8.70;69.80
39777;DHT22;25453;48.162;14.510;2022-11-15T01:40:30;8.70;69.60
39777;DHT22;25453;48.162;14.510;2022-11-15T01:43:24;8.60;69.50
39777;DHT22;25453;48.162;14.510;2022-11-15T01:46:31;8.50;69.70
39777;DHT22;25453;48.162;14.510;2022-11-15T01:49:13;8.50;69.90
39777;DHT22;25453;48.162;14.510;2022-11-15T01:51:41;8.50;70.40
39777;DHT22;25453;48.162;14.510;2022-11-15T01:54:16;8.50;70.60
39777;DHT22;25453;48.162;14.510;2022-11-15T01:56:52;8.50;70.60
39777;DHT22;25453;48.162;14.510;2022-11-15T01:59:26;8.50;70.60
39777;DHT22;25453;48.162;14.510;2022-11-15T02:01:54;8.50;70.40
39777;DHT22;25453;48.162;14.510;2022-11-15T02:04:32;8.50;70.70
39777;DHT22;25453;48.162;14.510;2022-11-15T02:07:03;8.60;70.90
39777;DHT22;25453;48.162;14.510;2022-11-15T02:09:38;8.60;70.80
39777;DHT22;25453;48.162;14.510;2022-11-15T02:12:07;8.60;70.50
39777;DHT22;25453;48.162;14.510;2022-11-15T02:14:46;8.60;70.50
39777;DHT22;25453;48.162;14.510;2022-11-15T02:32:23;8.50;70.40
39777;DHT22;25453;48.162;14.510;2022-11-15T02:35:13;8.50;70.30
39777;DHT22;25453;48.162;14.510;2022-11-15T02:37:43;8.40;70.20
39777;DHT22;25453;48.162;14.510;2022-11-15T02:46:58;8.30;70.30
39777;DHT22;25453;48.162;14.510;2022-11-15T02:49:52;8.30;70.30
39777;DHT22;25453;48.162;14.510;2022-11-15T02:52:27;8.20;70.30
39777;DHT22;25453;48.162;14.510;2022-11-15T02:55:00;8.20;70.30
39777;DHT22;25453;48.162;14.510;2022-11-15T02:57:51;8.20;70.50
39777;DHT22;25453;48.162;14.510;2022-11-15T03:00:19;8.20;70.90
39777;DHT22;25453;48.162;14.510;2022-11-15T03:11:49;8.40;70.60
39777;DHT22;25453;48.162;14.510;2022-11-15T03:14:24;8.40;69.80
39777;DHT22;25453;48.162;14.510;2022-11-15T03:19:48;8.30;69.90
39777;DHT22;25453;48.162;14.510;2022-11-15T03:22:25;8.30;69.70
39777;DHT22;25453;48.162;14.510;2022-11-15T03:24:57;8.20;69.60
39777;DHT22;25453;48.162;14.510;2022-11-15T03:27:37;8.20;69.60
39777;DHT22;25453;48.162;14.510;2022-11-15T03:30:07;8.10;69.60
39777;DHT22;25453;48.162;14.510;2022-11-15T03:32:49;8.10;69.80
39777;DHT22;25453;48.162;14.510;2022-11-15T03:35:27;8.00;69.90
39777;DHT22;25453;48.162;14.510;2022-11-15T03:41:04;8.10;70.00
39777;DHT22;25453;48.162;14.510;2022-11-15T03:43:43;8.00;70.00
39777;DHT22;25453;48.162;14.510;2022-11-15T03:46:16;8.00;70.10
39777;DHT22;25453;48.162;14.510;2022-11-15T03:48:58;8.00;70.10
39777;DHT22;25453;48.162;14.510;2022-11-15T03:51:26;7.90;69.80
39777;DHT22;25453;48.162;14.510;2022-11-15T03:54:05;7.90;69.70
39777;DHT22;25453;48.162;14.510;2022-11-15T03:56:39;7.80;69.60
39777;DHT22;25453;48.162;14.510;2022-11-15T03:59:13;7.80;69.90
39777;DHT22;25453;48.162;14.510;2022-11-15T04:01:40;7.80;69.80
39777;DHT22;25453;48.162;14.510;2022-11-15T04:04:14;7.70;69.80
39777;DHT22;25453;48.162;14.510;2022-11-15T04:06:48;7.70;69.70
39777;DHT22;25453;48.162;14.510;2022-11-15T04:09:15;7.60;69.70
39777;DHT22;25453;48.162;14.510;2022-11-15T04:11:49;7.60;69.70
39777;DHT22;25453;48.162;14.510;2022-11-15T04:14:16;7.60;69.90
39777;DHT22;25453;48.162;14.510;2022-11-15T04:16:50;7.60;70.30
39777;DHT22;25453;48.162;14.510;2022-11-15T04:19:17;7.60;70.20
39777;DHT22;25453;48.162;14.510;2022-11-15T04:22:09;7.70;70.40
39777;DHT22;25453;48.162;14.510;2022-11-15T04:25:01;7.80;70.50
39777;DHT22;25453;48.162;14.510;2022-11-15T04:27:28;7.80;69.90
39777;DHT22;25453;48.162;14.510;2022-11-15T04:30:04;7.70;69.90
39777;DHT22;25453;48.162;14.510;2022-11-15T04:32:51;7.70;69.90
39777;DHT22;25453;48.162;14.510;2022-11-15T04:35:18;7.70;69.70
39777;DHT22;25453;48.162;14.510;2022-11-15T04:37:51;7.60;69.90
39777;DHT22;25453;48.162;14.510;2022-11-15T04:40:25;7.60;69.80
39777;DHT22;25453;48.162;14.510;2022-11-15T04:42:59;7.60;69.70
39777;DHT22;25453;48.162;14.510;2022-11-15T04:45:33;7.60;70.30
39777;DHT22;25453;48.162;14.510;2022-11-15T04:48:07;7.70;70.10
39777;DHT22;25453;48.162;14.510;2022-11-15T04:50:34;7.70;69.80
39777;DHT22;25453;48.162;14.510;2022-11-15T04:53:08;7.60;69.70
39777;DHT22;25453;48.162;14.510;2022-11-15T04:55:35;7.60;69.40
39777;DHT22;25453;48.162;14.510;2022-11-15T04:58:09;7.50;69.40
39777;DHT22;25453;48.162;14.510;2022-11-15T05:00:43;7.50;69.80
39777;DHT22;25453;48.162;14.510;2022-11-15T05:03:10;7.50;70.30
39777;DHT22;25453;48.162;14.510;2022-11-15T05:06:03;7.60;70.30
39777;DHT22;25453;48.162;14.510;2022-11-15T05:08:37;7.70;70.20
39777;DHT22;25453;48.162;14.510;2022-11-15T05:11:04;7.70;69.70
39777;DHT22;25453;48.162;14.510;2022-11-15T05:13:38;7.60;69.40
39777;DHT22;25453;48.162;14.510;2022-11-15T05:16:05;7.60;69.30
39777;DHT22;25453;48.162;14.510;2022-11-15T05:18:39;7.60;69.30
39777;DHT22;25453;48.162;14.510;2022-11-15T05:21:13;7.50;69.50
39777;DHT22;25453;48.162;14.510;2022-11-15T05:23:46;7.50;69.70
39777;DHT22;25453;48.162;14.510;2022-11-15T05:26:15;7.50;69.50
39777;DHT22;25453;48.162;14.510;2022-11-15T05:28:57;7.50;69.60
39777;DHT22;25453;48.162;14.510;2022-11-15T05:31:31;7.40;69.50
39777;DHT22;25453;48.162;14.510;2022-11-15T05:34:05;7.40;69.50
39777;DHT22;25453;48.162;14.510;2022-11-15T05:36:42;7.40;69.50
39777;DHT22;25453;48.162;14.510;2022-11-15T05:39:23;7.30;69.60
39777;DHT22;25453;48.162;14.510;2022-11-15T05:42:13;7.30;69.80
39777;DHT22;25453;48.162;14.510;2022-11-15T05:44:48;7.40;70.10
39777;DHT22;25453;48.162;14.510;2022-11-15T05:47:24;7.40;70.20
39777;DHT22;25453;48.162;14.510;2022-11-15T05:49:59;7.40;70.40
39777;DHT22;25453;48.162;14.510;2022-11-15T05:52:36;7.50;70.80
39777;DHT22;25453;48.162;14.510;2022-11-15T05:55:06;7.60;70.90
39777;DHT22;25453;48.162;14.510;2022-11-15T05:57:40;7.60;70.80
39777;DHT22;25453;48.162;14.510;2022-11-15T06:00:14;7.70;70.60
39777;DHT22;25453;48.162;14.510;2022-11-15T06:02:41;7.70;70.70
39777;DHT22;25453;48.162;14.510;2022-11-15T06:05:15;7.80;70.70
39777;DHT22;25453;48.162;14.510;2022-11-15T06:07:49;7.80;70.70
39777;DHT22;25453;48.162;14.510;2022-11-15T06:10:17;7.90;70.70
39777;DHT22;25453;48.162;14.510;2022-11-15T06:13:03;7.90;70.80
39777;DHT22;25453;48.162;14.510;2022-11-15T06:15:37;7.90;70.90
39777;DHT22;25453;48.162;14.510;2022-11-15T06:18:04;7.90;71.10
39777;DHT22;25453;48.162;14.510;2022-11-15T06:20:38;8.00;71.20
39777;DHT22;25453;48.162;14.510;2022-11-15T06:23:05;8.00;71.40
39777;DHT22;25453;48.162;14.510;2022-11-15T06:25:39;8.10;71.50
39777;DHT22;25453;48.162;14.510;2022-11-15T06:28:06;8.10;71.80
39777;DHT22;25453;48.162;14.510;2022-11-15T06:30:33;8.20;71.90
39777;DHT22;25453;48.162;14.510;2022-11-15T06:33:07;8.20;71.90
39777;DHT22;25453;48.162;14.510;2022-11-15T06:35:36;8.30;72.10
39777;DHT22;25453;48.162;14.510;2022-11-15T06:38:11;8.40;72.10
39777;DHT22;25453;48.162;14.510;2022-11-15T06:40:51;8.40;72.30
39777;DHT22;25453;48.162;14.510;2022-11-15T06:43:26;8.50;72.70
39777;DHT22;25453;48.162;14.510;2022-11-15T06:45:53;8.50;72.90
39777;DHT22;25453;48.162;14.510;2022-11-15T06:48:27;8.60;73.20
39777;DHT22;25453;48.162;14.510;2022-11-15T06:50:57;8.60;73.30
39777;DHT22;25453;48.162;14.510;2022-11-15T06:53:32;8.60;73.60
39777;DHT22;25453;48.162;14.510;2022-11-15T06:56:01;8.70;73.80
39777;DHT22;25453;48.162;14.510;2022-11-15T06:58:36;8.70;74.00
39777;DHT22;25453;48.162;14.510;2022-11-15T07:01:09;8.60;74.00
39777;DHT22;25453;48.162;14.510;2022-11-15T07:03:43;8.60;74.40
39777;DHT22;25453;48.162;14.510;2022-11-15T07:06:12;8.60;74.60
39777;DHT22;25453;48.162;14.510;2022-11-15T07:08:45;8.60;74.80
39777;DHT22;25453;48.162;14.510;2022-11-15T07:11:12;8.60;75.10
39777;DHT22;25453;48.162;14.510;2022-11-15T07:13:40;8.70;75.20
39777;DHT22;25453;48.162;14.510;2022-11-15T07:16:14;8.70;75.30
39777;DHT22;25453;48.162;14.510;2022-11-15T07:18:41;8.70;75.60
39777;DHT22;25453;48.162;14.510;2022-11-15T07:21:15;8.70;75.60
39777;DHT22;25453;48.162;14.510;2022-11-15T07:23:42;8.70;75.70
39777;DHT22;25453;48.162;14.510;2022-11-15T07:26:09;8.70;75.80
39777;DHT22;25453;48.162;14.510;2022-11-15T07:28:43;8.70;75.90
39777;DHT22;25453;48.162;14.510;2022-11-15T07:31:10;8.60;75.90
39777;DHT22;25453;48.162;14.510;2022-11-15T07:33:44;8.60;76.50
39777;DHT22;25453;48.162;14.510;2022-11-15T07:36:18;8.60;76.50
39777;DHT22;25453;48.162;14.510;2022-11-15T07:38:45;8.60;76.70
39777;DHT22;25453;48.162;14.510;2022-11-15T07:41:19;8.70;77.00
39777;DHT22;25453;48.162;14.510;2022-11-15T07:43:52;8.70;77.00
39777;DHT22;25453;48.162;14.510;2022-11-15T07:46:26;8.70;77.20
39777;DHT22;25453;48.162;14.510;2022-11-15T07:48:53;8.80;77.30
39777;DHT22;25453;48.162;14.510;2022-11-15T07:51:27;8.80;77.00
39777;DHT22;25453;48.162;14.510;2022-11-15T07:53:54;8.70;77.20
39777;DHT22;25453;48.162;14.510;2022-11-15T07:56:28;8.80;77.30
39777;DHT22;25453;48.162;14.510;2022-11-15T07:58:56;8.80;77.60
39777;DHT22;25453;48.162;14.510;2022-11-15T08:01:30;8.80;77.60
39777;DHT22;25453;48.162;14.510;2022-11-15T08:03:57;8.80;77.40
39777;DHT22;25453;48.162;14.510;2022-11-15T08:06:31;8.80;77.70
39777;DHT22;25453;48.162;14.510;2022-11-15T08:08:59;8.80;77.90
39777;DHT22;25453;48.162;14.510;2022-11-15T08:11:32;8.80;77.90
39777;DHT22;25453;48.162;14.510;2022-11-15T08:14:06;8.80;78.00
39777;DHT22;25453;48.162;14.510;2022-11-15T08:16:33;8.80;77.90
39777;DHT22;25453;48.162;14.510;2022-11-15T08:19:07;8.70;77.90
39777;DHT22;25453;48.162;14.510;2022-11-15T08:21:34;8.70;78.20
39777;DHT22;25453;48.162;14.510;2022-11-15T08:24:10;8.70;78.40
39777;DHT22;25453;48.162;14.510;2022-11-15T08:26:37;8.80;78.40
39777;DHT22;25453;48.162;14.510;2022-11-15T08:29:11;8.80;78.30
39777;DHT22;25453;48.162;14.510;2022-11-15T08:31:39;8.70;78.10
39777;DHT22;25453;48.162;14.510;2022-11-15T08:34:12;8.60;78.00
39777;DHT22;25453;48.162;14.510;2022-11-15T08:36:39;8.60;78.50
39777;DHT22;25453;48.162;14.510;2022-11-15T08:39:13;8.60;79.00
39777;DHT22;25453;48.162;14.510;2022-11-15T08:41:54;8.70;79.20
39777;DHT22;25453;48.162;14.510;2022-11-15T08:44:27;8.70;79.10
39777;DHT22;25453;48.162;14.510;2022-11-15T08:46:54;8.80;79.30
39777;DHT22;25453;48.162;14.510;2022-11-15T08:49:21;8.80;79.20
39777;DHT22;25453;48.162;14.510;2022-11-15T08:51:56;8.90;79.20
39777;DHT22;25453;48.162;14.510;2022-11-15T08:54:23;8.90;79.10
39777;DHT22;25453;48.162;14.510;2022-11-15T08:56:57;8.90;79.00
39777;DHT22;25453;48.162;14.510;2022-11-15T08:59:24;9.00;79.00
39777;DHT22;25453;48.162;14.510;2022-11-15T09:01:58;9.00;79.00
39777;DHT22;25453;48.162;14.510;2022-11-15T09:04:25;9.00;79.00
39777;DHT22;25453;48.162;14.510;2022-11-15T09:06:59;9.00;79.00
39777;DHT22;25453;48.162;14.510;2022-11-15T09:09:33;9.00;78.90
39777;DHT22;25453;48.162;14.510;2022-11-15T09:12:00;9.00;78.70
39777;DHT22;25453;48.162;14.510;2022-11-15T09:14:34;9.00;78.50
39777;DHT22;25453;48.162;14.510;2022-11-15T09:17:02;9.00;78.50
39777;DHT22;25453;48.162;14.510;2022-11-15T09:19:30;8.90;78.60
39777;DHT22;25453;48.162;14.510;2022-11-15T09:22:08;8.90;78.70
39777;DHT22;25453;48.162;14.510;2022-11-15T09:24:35;8.90;78.90
39777;DHT22;25453;48.162;14.510;2022-11-15T09:27:09;8.90;79.00
39777;DHT22;25453;48.162;14.510;2022-11-15T09:29:43;8.90;79.00
39777;DHT22;25453;48.162;14.510;2022-11-15T09:32:17;8.90;79.00
39777;DHT22;25453;48.162;14.510;2022-11-15T09:34:44;8.90;79.10
39777;DHT22;25453;48.162;14.510;2022-11-15T09:37:12;9.00;79.40
39777;DHT22;25453;48.162;14.510;2022-11-15T09:39:45;9.00;79.40
39777;DHT22;25453;48.162;14.510;2022-11-15T09:42:25;9.00;79.40
39777;DHT22;25453;48.162;14.510;2022-11-15T09:45:23;9.00;79.00
39777;DHT22;25453;48.162;14.510;2022-11-15T09:50:42;9.00;79.00
39777;DHT22;25453;48.162;14.510;2022-11-15T09:53:42;8.90;78.90
39777;DHT22;25453;48.162;14.510;2022-11-15T09:56:42;8.90;79.10
39777;DHT22;25453;48.162;14.510;2022-11-15T10:04:48;8.90;79.30
39777;DHT22;25453;48.162;14.510;2022-11-15T10:12:50;8.90;79.60
39777;DHT22;25453;48.162;14.510;2022-11-15T10:15:26;8.90;79.70
39777;DHT22;25453;48.162;14.510;2022-11-15T10:18:18;9.00;79.80
39777;DHT22;25453;48.162;14.510;2022-11-15T10:20:52;9.00;80.00
39777;DHT22;25453;48.162;14.510;2022-11-15T10:23:28;9.10;80.10
39777;DHT22;25453;48.162;14.510;2022-11-15T10:25:58;9.20;80.00
39777;DHT22;25453;48.162;14.510;2022-11-15T10:28:32;9.20;79.70
39777;DHT22;25453;48.162;14.510;2022-11-15T10:31:23;9.20;79.40
39777;DHT22;25453;48.162;14.510;2022-11-15T10:33:51;9.20;79.20
39777;DHT22;25453;48.162;14.510;2022-11-15T10:36:30;9.20;79.30
39777;DHT22;25453;48.162;14.510;2022-11-15T10:39:12;9.20;79.40
39777;DHT22;25453;48.162;14.510;2022-11-15T10:41:54;9.20;79.50
39777;DHT22;25453;48.162;14.510;2022-11-15T10:44:42;9.20;79.30
39777;DHT22;25453;48.162;14.510;2022-11-15T10:47:30;9.20;79.30
39777;DHT22;25453;48.162;14.510;2022-11-15T10:50:29;9.30;79.50
39777;DHT22;25453;48.162;14.510;2022-11-15T10:53:04;9.30;79.60
39777;DHT22;25453;48.162;14.510;2022-11-15T10:55:50;9.30;79.50
39777;DHT22;25453;48.162;14.510;2022-11-15T10:58:42;9.30;79.30
39777;DHT22;25453;48.162;14.510;2022-11-15T11:01:20;9.30;79.10
39777;DHT22;25453;48.162;14.510;2022-11-15T11:04:00;9.20;79.20
39777;DHT22;25453;48.162;14.510;2022-11-15T11:06:51;9.20;79.40
39777;DHT22;25453;48.162;14.510;2022-11-15T11:09:37;9.20;79.50
39777;DHT22;25453;48.162;14.510;2022-11-15T11:12:12;9.30;79.30
39777;DHT22;25453;48.162;14.510;2022-11-15T11:14:45;9.30;79.30
39777;DHT22;25453;48.162;14.510;2022-11-15T11:26:12;9.30;79.50
39777;DHT22;25453;48.162;14.510;2022-11-15T11:28:53;9.30;79.40
39777;DHT22;25453;48.162;14.510;2022-11-15T11:37:24;9.20;79.20
39777;DHT22;25453;48.162;14.510;2022-11-15T11:40:02;9.20;79.40
39777;DHT22;25453;48.162;14.510;2022-11-15T11:48:16;9.30;79.50
39777;DHT22;25453;48.162;14.510;2022-11-15T11:50:48;9.30;79.30
39777;DHT22;25453;48.162;14.510;2022-11-15T11:53:36;9.30;79.10
39777;DHT22;25453;48.162;14.510;2022-11-15T11:56:19;9.20;79.20
39777;DHT22;25453;48.162;14.510;2022-11-15T11:59:02;9.20;79.50
39777;DHT22;25453;48.162;14.510;2022-11-15T12:01:41;9.20;79.70
39777;DHT22;25453;48.162;14.510;2022-11-15T12:04:40;9.20;79.60
39777;DHT22;25453;48.162;14.510;2022-11-15T12:07:15;9.10;79.40
39777;DHT22;25453;48.162;14.510;2022-11-15T12:10:05;9.10;79.80
39777;DHT22;25453;48.162;14.510;2022-11-15T12:13:05;9.10;79.90
39777;DHT22;25453;48.162;14.510;2022-11-15T12:18:15;9.20;80.00
39777;DHT22;25453;48.162;14.510;2022-11-15T12:21:03;9.20;80.20
39777;DHT22;25453;48.162;14.510;2022-11-15T12:23:49;9.30;80.30
39777;DHT22;25453;48.162;14.510;2022-11-15T12:26:23;9.30;80.40
39777;DHT22;25453;48.162;14.510;2022-11-15T12:29:03;9.40;80.00
39777;DHT22;25453;48.162;14.510;2022-11-15T12:36:49;9.30;79.70
39777;DHT22;25453;48.162;14.510;2022-11-15T12:40:26;9.30;79.50
39777;DHT22;25453;48.162;14.510;2022-11-15T12:45:46;9.20;79.70
39777;DHT22;25453;48.162;14.510;2022-11-15T12:51:09;9.20;79.90
39777;DHT22;25453;48.162;14.510;2022-11-15T12:53:36;9.20;80.10
39777;DHT22;25453;48.162;14.510;2022-11-15T12:56:09;9.30;80.30
39777;DHT22;25453;48.162;14.510;2022-11-15T13:07:01;9.40;79.90
39777;DHT22;25453;48.162;14.510;2022-11-15T13:12:06;9.40;79.60
39777;DHT22;25453;48.162;14.510;2022-11-15T13:14:44;9.40;79.40
39777;DHT22;25453;48.162;14.510;2022-11-15T13:17:30;9.30;79.30
39777;DHT22;25453;48.162;14.510;2022-11-15T13:25:56;9.10;79.40
39777;DHT22;25453;48.162;14.510;2022-11-15T13:28:38;9.10;79.80
39777;DHT22;25453;48.162;14.510;2022-11-15T13:31:37;9.10;80.20
39777;DHT22;25453;48.162;14.510;2022-11-15T13:34:29;9.10;80.20
39777;DHT22;25453;48.162;14.510;2022-11-15T13:40:34;9.20;80.20
39777;DHT22;25453;48.162;14.510;2022-11-15T13:49:09;9.20;80.20
39777;DHT22;25453;48.162;14.510;2022-11-15T13:51:46;9.20;80.10
39777;DHT22;25453;48.162;14.510;2022-11-15T13:57:15;9.30;80.10
39777;DHT22;25453;48.162;14.510;2022-11-15T13:59:54;9.40;80.10
39777;DHT22;25453;48.162;14.510;2022-11-15T14:02:31;9.40;79.90
39777;DHT22;25453;48.162;14.510;2022-11-15T14:05:19;9.40;79.70
39777;DHT22;25453;48.162;14.510;2022-11-15T14:08:12;9.30;79.70
39777;DHT22;25453;48.162;14.510;2022-11-15T14:11:15;9.30;79.60
39777;DHT22;25453;48.162;14.510;2022-11-15T14:16:47;9.30;79.90
39777;DHT22;25453;48.162;14.510;2022-11-15T14:22:15;9.30;80.00
39777;DHT22;25453;48.162;14.510;2022-11-15T14:27:39;9.30;80.10
39777;DHT22;25453;48.162;14.510;2022-11-15T14:30:14;9.40;80.10
39777;DHT22;25453;48.162;14.510;2022-11-15T14:32:50;9.40;79.80
39777;DHT22;25453;48.162;14.510;2022-11-15T14:35:22;9.30;79.60
39777;DHT22;25453;48.162;14.510;2022-11-15T14:37:58;9.30;79.60
39777;DHT22;25453;48.162;14.510;2022-11-15T14:40:26;9.20;79.80
39777;DHT22;25453;48.162;14.510;2022-11-15T14:43:12;9.20;79.80
39777;DHT22;25453;48.162;14.510;2022-11-15T14:45:39;9.20;79.90
39777;DHT22;25453;48.162;14.510;2022-11-15T14:48:13;9.20;80.00
39777;DHT22;25453;48.162;14.510;2022-11-15T14:50:44;9.10;80.20
39777;DHT22;25453;48.162;14.510;2022-11-15T14:53:18;9.20;80.40
39777;DHT22;25453;48.162;14.510;2022-11-15T14:55:46;9.20;80.40
39777;DHT22;25453;48.162;14.510;2022-11-15T14:58:20;9.20;80.40
39777;DHT22;25453;48.162;14.510;2022-11-15T15:00:47;9.20;80.20
39777;DHT22;25453;48.162;14.510;2022-11-15T15:03:21;9.20;80.30
39777;DHT22;25453;48.162;14.510;2022-11-15T15:05:48;9.20;80.50
39777;DHT22;25453;48.162;14.510;2022-11-15T15:08:22;9.20;80.60
39777;DHT22;25453;48.162;14.510;2022-11-15T15:10:49;9.20;80.50
39777;DHT22;25453;48.162;14.510;2022-11-15T15:13:22;9.30;80.40
39777;DHT22;25453;48.162;14.510;2022-11-15T15:15:58;9.30;80.10
39777;DHT22;25453;48.162;14.510;2022-11-15T15:18:25;9.20;80.10
39777;DHT22;25453;48.162;14.510;2022-11-15T15:21:00;9.20;80.40
39777;DHT22;25453;48.162;14.510;2022-11-15T15:23:34;9.20;80.40
39777;DHT22;25453;48.162;14.510;2022-11-15T15:26:09;9.20;80.50
39777;DHT22;25453;48.162;14.510;2022-11-15T15:28:42;9.20;80.50
39777;DHT22;25453;48.162;14.510;2022-11-15T15:31:10;9.20;80.60
39777;DHT22;25453;48.162;14.510;2022-11-15T15:33:44;9.20;80.50
39777;DHT22;25453;48.162;14.510;2022-11-15T15:36:19;9.20;80.40
39777;DHT22;25453;48.162;14.510;2022-11-15T15:38:46;9.10;80.40
39777;DHT22;25453;48.162;14.510;2022-11-15T15:41:20;9.00;80.50
39777;DHT22;25453;48.162;14.510;2022-11-15T15:43:55;9.00;80.70
39777;DHT22;25453;48.162;14.510;2022-11-15T15:46:31;9.00;80.90
39777;DHT22;25453;48.162;14.510;2022-11-15T15:48:58;8.90;81.00
39777;DHT22;25453;48.162;14.510;2022-11-15T15:51:32;8.90;81.30
39777;DHT22;25453;48.162;14.510;2022-11-15T15:54:00;8.90;81.30
39777;DHT22;25453;48.162;14.510;2022-11-15T15:56:33;8.90;81.40
39777;DHT22;25453;48.162;14.510;2022-11-15T15:59:07;8.90;81.50
39777;DHT22;25453;48.162;14.510;2022-11-15T16:01:41;8.90;81.50
39777;DHT22;25453;48.162;14.510;2022-11-15T16:04:09;8.90;81.30
39777;DHT22;25453;48.162;14.510;2022-11-15T16:06:38;8.90;81.60
39777;DHT22;25453;48.162;14.510;2022-11-15T16:09:17;8.90;81.70
39777;DHT22;25453;48.162;14.510;2022-11-15T16:11:45;8.90;81.80
39777;DHT22;25453;48.162;14.510;2022-11-15T16:14:19;9.00;81.60
39777;DHT22;25453;48.162;14.510;2022-11-15T16:16:49;8.90;81.50
39777;DHT22;25453;48.162;14.510;2022-11-15T16:19:23;8.90;81.60
39777;DHT22;25453;48.162;14.510;2022-11-15T16:21:51;8.90;81.80
39777;DHT22;25453;48.162;14.510;2022-11-15T16:24:27;8.90;82.00
39777;DHT22;25453;48.162;14.510;2022-11-15T16:26:55;9.00;82.10
39777;DHT22;25453;48.162;14.510;2022-11-15T16:29:29;9.00;81.80
39777;DHT22;25453;48.162;14.510;2022-11-15T16:31:56;9.00;81.90
39777;DHT22;25453;48.162;14.510;2022-11-15T16:34:30;9.10;81.90
39777;DHT22;25453;48.162;14.510;2022-11-15T16:37:08;9.10;81.90
39777;DHT22;25453;48.162;14.510;2022-11-15T16:39:56;9.20;81.80
39777;DHT22;25453;48.162;14.510;2022-11-15T16:42:38;9.20;81.50
39777;DHT22;25453;48.162;14.510;2022-11-15T16:45:13;9.20;81.30
39777;DHT22;25453;48.162;14.510;2022-11-15T16:47:47;9.20;81.50
39777;DHT22;25453;48.162;14.510;2022-11-15T16:50:24;9.20;81.60
39777;DHT22;25453;48.162;14.510;2022-11-15T16:52:58;9.20;81.60
39777;DHT22;25453;48.162;14.510;2022-11-15T16:55:28;9.20;81.60
39777;DHT22;25453;48.162;14.510;2022-11-15T16:58:01;9.20;81.40
39777;DHT22;25453;48.162;14.510;2022-11-15T17:00:35;9.10;81.20
39777;DHT22;25453;48.162;14.510;2022-11-15T17:03:02;9.10;81.40
39777;DHT22;25453;48.162;14.510;2022-11-15T17:05:30;9.10;81.60
39777;DHT22;25453;48.162;14.510;2022-11-15T17:08:04;9.10;81.70
39777;DHT22;25453;48.162;14.510;2022-11-15T17:10:32;9.20;81.70
39777;DHT22;25453;48.162;14.510;2022-11-15T17:13:12;9.20;81.60
39777;DHT22;25453;48.162;14.510;2022-11-15T17:15:39;9.20;81.60
39777;DHT22;25453;48.162;14.510;2022-11-15T17:18:13;9.20;81.60
39777;DHT22;25453;48.162;14.510;2022-11-15T17:20:47;9.20;81.60
39777;DHT22;25453;48.162;14.510;2022-11-15T17:23:14;9.20;81.70
39777;DHT22;25453;48.162;14.510;2022-11-15T17:25:58;9.30;81.80
39777;DHT22;25453;48.162;14.510;2022-11-15T17:28:55;9.30;81.80
39777;DHT22;25453;48.162;14.510;2022-11-15T17:31:29;9.40;81.70
39777;DHT22;25453;48.162;14.510;2022-11-15T17:34:06;9.40;81.60
39777;DHT22;25453;48.162;14.510;2022-11-15T17:36:33;9.40;81.40
39777;DHT22;25453;48.162;14.510;2022-11-15T17:39:09;9.40;81.20
39777;DHT22;25453;48.162;14.510;2022-11-15T17:41:36;9.40;81.20
39777;DHT22;25453;48.162;14.510;2022-11-15T17:44:24;9.40;81.20
39777;DHT22;25453;48.162;14.510;2022-11-15T17:46:51;9.40;81.00
39777;DHT22;25453;48.162;14.510;2022-11-15T17:49:25;9.40;81.20
39777;DHT22;25453;48.162;14.510;2022-11-15T17:51:52;9.30;81.10
39777;DHT22;25453;48.162;14.510;2022-11-15T17:54:20;9.30;81.20
39777;DHT22;25453;48.162;14.510;2022-11-15T17:56:54;9.30;81.40
39777;DHT22;25453;48.162;14.510;2022-11-15T17:59:21;9.40;81.40
39777;DHT22;25453;48.162;14.510;2022-11-15T18:01:54;9.40;81.20
39777;DHT22;25453;48.162;14.510;2022-11-15T18:04:21;9.40;81.20
39777;DHT22;25453;48.162;14.510;2022-11-15T18:06:54;9.30;81.30
39777;DHT22;25453;48.162;14.510;2022-11-15T18:09:28;9.30;81.30
39777;DHT22;25453;48.162;14.510;2022-11-15T18:12:02;9.40;81.10
39777;DHT22;25453;48.162;14.510;2022-11-15T18:14:30;9.30;81.10
39777;DHT22;25453;48.162;14.510;2022-11-15T18:17:03;9.30;81.10
39777;DHT22;25453;48.162;14.510;2022-11-15T18:19:30;9.30;81.10